sensor_id;sensor_type;location;lat;lon;timestamp;P1;durP1;ratioP1;P2;durP2;ratioP2
15363;SDS011;7781;49.690;6.472;2022-12-10T00:00:37;19.20;;;8.17;;
15363;SDS011;7781;49.690;6.472;2022-12-10T00:03:08;18.37;;;8.67;;
15363;SDS011;7781;49.690;6.472;2022-12-10T00:05:37;12.33;;;8.17;;
15363;SDS011;7781;49.690;6.472;2022-12-10T00:08:07;12.77;;;8.43;;
15363;SDS011;7781;49.690;6.472;2022-12-10T00:10:40;16.93;;;7.60;;
15363;SDS011;7781;49.690;6.472;2022-12-10T00:13:08;12.33;;;8.23;;
15363;SDS011;7781;49.690;6.472;2022-12-10T00:15:40;12.67;;;8.00;;
15363;SDS011;7781;49.690;6.472;2022-12-10T00:18:08;15.90;;;9.17;;
15363;SDS011;7781;49.690;6.472;2022-12-10T00:20:38;13.23;;;7.83;;
15363;SDS011;7781;49.690;6.472;2022-12-10T00:23:13;13.37;;;7.90;;
15363;SDS011;7781;49.690;6.472;2022-12-10T00:25:51;11.10;;;7.90;;
15363;SDS011;7781;49.690;6.472;2022-12-10T00:28:20;12.20;;;7.73;;
15363;SDS011;7781;49.690;6.472;2022-12-10T00:30:49;10.93;;;7.70;;
15363;SDS011;7781;49.690;6.472;2022-12-10T00:33:18;14.47;;;8.23;;
15363;SDS011;7781;49.690;6.472;2022-12-10T00:35:47;12.67;;;7.63;;
15363;SDS011;7781;49.690;6.472;2022-12-10T00:38:16;11.93;;;7.70;;
15363;SDS011;7781;49.690;6.472;2022-12-10T00:40:47;10.70;;;7.70;;
15363;SDS011;7781;49.690;6.472;2022-12-10T00:43:17;12.50;;;7.83;;
15363;SDS011;7781;49.690;6.472;2022-12-10T00:45:46;19.47;;;9.30;;
15363;SDS011;7781;49.690;6.472;2022-12-10T00:48:17;18.20;;;8.63;;
15363;SDS011;7781;49.690;6.472;2022-12-10T00:50:54;13.77;;;8.43;;
15363;SDS011;7781;49.690;6.472;2022-12-10T00:53:27;13.80;;;8.37;;
15363;SDS011;7781;49.690;6.472;2022-12-10T00:55:58;11.83;;;8.23;;
15363;SDS011;7781;49.690;6.472;2022-12-10T00:58:30;14.00;;;8.70;;
15363;SDS011;7781;49.690;6.472;2022-12-10T01:01:06;14.07;;;8.60;;
15363;SDS011;7781;49.690;6.472;2022-12-10T01:03:37;11.77;;;7.63;;
15363;SDS011;7781;49.690;6.472;2022-12-10T01:06:07;12.97;;;8.93;;
15363;SDS011;7781;49.690;6.472;2022-12-10T01:08:40;15.67;;;9.40;;
15363;SDS011;7781;49.690;6.472;2022-12-10T01:11:10;12.57;;;7.53;;
15363;SDS011;7781;49.690;6.472;2022-12-10T01:13:45;11.90;;;7.33;;
15363;SDS011;7781;49.690;6.472;2022-12-10T01:16:18;11.70;;;7.47;;
15363;SDS011;7781;49.690;6.472;2022-12-10T01:18:52;11.40;;;6.57;;
15363;SDS011;7781;49.690;6.472;2022-12-10T01:21:24;9.80;;;7.17;;
15363;SDS011;7781;49.690;6.472;2022-12-10T01:23:55;10.40;;;6.30;;
15363;SDS011;7781;49.690;6.472;2022-12-10T01:26:27;11.83;;;7.30;;
15363;SDS011;7781;49.690;6.472;2022-12-10T01:29:04;13.63;;;7.27;;
15363;SDS011;7781;49.690;6.472;2022-12-10T01:31:34;10.27;;;7.00;;
15363;SDS011;7781;49.690;6.472;2022-12-10T01:34:06;12.90;;;7.70;;
15363;SDS011;7781;49.690;6.472;2022-12-10T01:36:39;12.97;;;7.97;;
15363;SDS011;7781;49.690;6.472;2022-12-10T01:39:11;18.23;;;8.70;;
15363;SDS011;7781;49.690;6.472;2022-12-10T01:41:43;12.70;;;7.30;;
15363;SDS011;7781;49.690;6.472;2022-12-10T01:47:24;13.30;;;8.07;;
15363;SDS011;7781;49.690;6.472;2022-12-10T01:49:53;13.50;;;7.60;;
15363;SDS011;7781;49.690;6.472;2022-12-10T01:52:22;11.40;;;7.80;;
15363;SDS011;7781;49.690;6.472;2022-12-10T01:54:50;13.77;;;8.50;;
15363;SDS011;7781;49.690;6.472;2022-12-10T01:57:21;14.53;;;7.37;;
15363;SDS011;7781;49.690;6.472;2022-12-10T01:59:55;16.97;;;8.93;;
15363;SDS011;7781;49.690;6.472;2022-12-10T02:02:34;14.17;;;7.73;;
15363;SDS011;7781;49.690;6.472;2022-12-10T02:05:13;15.17;;;9.10;;
15363;SDS011;7781;49.690;6.472;2022-12-10T02:07:53;12.27;;;7.97;;
15363;SDS011;7781;49.690;6.472;2022-12-10T02:10:35;15.87;;;8.77;;
15363;SDS011;7781;49.690;6.472;2022-12-10T02:13:17;16.83;;;7.93;;
15363;SDS011;7781;49.690;6.472;2022-12-10T02:15:51;14.03;;;9.10;;
15363;SDS011;7781;49.690;6.472;2022-12-10T02:18:26;12.70;;;8.50;;
15363;SDS011;7781;49.690;6.472;2022-12-10T02:21:00;13.40;;;8.93;;
15363;SDS011;7781;49.690;6.472;2022-12-10T02:23:35;15.33;;;8.60;;
15363;SDS011;7781;49.690;6.472;2022-12-10T02:26:09;19.67;;;10.00;;
15363;SDS011;7781;49.690;6.472;2022-12-10T02:28:45;13.37;;;8.70;;
15363;SDS011;7781;49.690;6.472;2022-12-10T02:31:23;22.57;;;11.03;;
15363;SDS011;7781;49.690;6.472;2022-12-10T02:33:58;19.80;;;9.03;;
15363;SDS011;7781;49.690;6.472;2022-12-10T02:36:30;16.03;;;9.00;;
15363;SDS011;7781;49.690;6.472;2022-12-10T02:39:03;13.17;;;8.03;;
15363;SDS011;7781;49.690;6.472;2022-12-10T02:41:43;23.93;;;10.93;;
15363;SDS011;7781;49.690;6.472;2022-12-10T02:44:16;23.97;;;13.30;;
15363;SDS011;7781;49.690;6.472;2022-12-10T02:46:50;21.00;;;9.50;;
15363;SDS011;7781;49.690;6.472;2022-12-10T02:49:30;16.87;;;10.17;;
15363;SDS011;7781;49.690;6.472;2022-12-10T02:52:05;9.73;;;6.87;;
15363;SDS011;7781;49.690;6.472;2022-12-10T02:54:39;13.73;;;8.07;;
15363;SDS011;7781;49.690;6.472;2022-12-10T02:57:15;16.00;;;7.63;;
15363;SDS011;7781;49.690;6.472;2022-12-10T02:59:59;9.00;;;6.03;;
15363;SDS011;7781;49.690;6.472;2022-12-10T03:02:46;9.50;;;5.70;;
15363;SDS011;7781;49.690;6.472;2022-12-10T03:05:27;14.07;;;8.30;;
15363;SDS011;7781;49.690;6.472;2022-12-10T03:08:03;14.33;;;8.83;;
15363;SDS011;7781;49.690;6.472;2022-12-10T03:10:37;12.33;;;7.13;;
15363;SDS011;7781;49.690;6.472;2022-12-10T03:13:14;10.30;;;6.77;;
15363;SDS011;7781;49.690;6.472;2022-12-10T03:15:50;12.67;;;7.17;;
15363;SDS011;7781;49.690;6.472;2022-12-10T03:18:23;11.07;;;6.47;;
15363;SDS011;7781;49.690;6.472;2022-12-10T03:20:54;10.30;;;6.50;;
15363;SDS011;7781;49.690;6.472;2022-12-10T03:23:29;15.43;;;6.00;;
15363;SDS011;7781;49.690;6.472;2022-12-10T03:26:03;14.70;;;7.77;;
15363;SDS011;7781;49.690;6.472;2022-12-10T03:28:34;12.30;;;7.67;;
15363;SDS011;7781;49.690;6.472;2022-12-10T03:31:06;12.10;;;7.60;;
15363;SDS011;7781;49.690;6.472;2022-12-10T03:33:38;13.60;;;7.77;;
15363;SDS011;7781;49.690;6.472;2022-12-10T03:36:09;14.23;;;8.50;;
15363;SDS011;7781;49.690;6.472;2022-12-10T03:38:40;16.03;;;8.70;;
15363;SDS011;7781;49.690;6.472;2022-12-10T03:41:10;12.97;;;8.30;;
15363;SDS011;7781;49.690;6.472;2022-12-10T03:43:52;16.77;;;8.90;;
15363;SDS011;7781;49.690;6.472;2022-12-10T03:46:31;15.10;;;8.83;;
15363;SDS011;7781;49.690;6.472;2022-12-10T03:49:02;14.57;;;8.20;;
15363;SDS011;7781;49.690;6.472;2022-12-10T03:51:31;15.57;;;8.30;;
15363;SDS011;7781;49.690;6.472;2022-12-10T03:54:00;16.87;;;9.53;;
15363;SDS011;7781;49.690;6.472;2022-12-10T03:56:30;17.20;;;9.70;;
15363;SDS011;7781;49.690;6.472;2022-12-10T03:58:58;19.10;;;9.47;;
15363;SDS011;7781;49.690;6.472;2022-12-10T04:01:28;15.37;;;8.77;;
15363;SDS011;7781;49.690;6.472;2022-12-10T04:03:56;17.53;;;8.83;;
15363;SDS011;7781;49.690;6.472;2022-12-10T04:06:27;13.73;;;8.70;;
15363;SDS011;7781;49.690;6.472;2022-12-10T04:08:55;17.50;;;9.70;;
15363;SDS011;7781;49.690;6.472;2022-12-10T04:11:24;16.00;;;9.27;;
15363;SDS011;7781;49.690;6.472;2022-12-10T04:13:55;15.53;;;10.00;;
15363;SDS011;7781;49.690;6.472;2022-12-10T04:16:41;17.07;;;9.83;;
15363;SDS011;7781;49.690;6.472;2022-12-10T04:19:10;17.20;;;9.87;;
15363;SDS011;7781;49.690;6.472;2022-12-10T04:21:42;17.90;;;10.30;;
15363;SDS011;7781;49.690;6.472;2022-12-10T04:24:31;12.83;;;8.17;;
15363;SDS011;7781;49.690;6.472;2022-12-10T04:27:20;15.90;;;10.10;;
15363;SDS011;7781;49.690;6.472;2022-12-10T04:29:50;20.37;;;11.10;;
15363;SDS011;7781;49.690;6.472;2022-12-10T04:32:21;21.03;;;10.10;;
15363;SDS011;7781;49.690;6.472;2022-12-10T04:34:52;17.47;;;8.67;;
15363;SDS011;7781;49.690;6.472;2022-12-10T04:37:24;16.57;;;9.83;;
15363;SDS011;7781;49.690;6.472;2022-12-10T04:39:54;17.87;;;9.40;;
15363;SDS011;7781;49.690;6.472;2022-12-10T04:42:22;15.70;;;9.67;;
15363;SDS011;7781;49.690;6.472;2022-12-10T04:44:51;16.07;;;10.20;;
15363;SDS011;7781;49.690;6.472;2022-12-10T04:47:20;15.40;;;9.57;;
15363;SDS011;7781;49.690;6.472;2022-12-10T04:49:50;25.30;;;9.63;;
15363;SDS011;7781;49.690;6.472;2022-12-10T04:52:20;17.23;;;9.00;;
15363;SDS011;7781;49.690;6.472;2022-12-10T04:54:51;15.40;;;10.07;;
15363;SDS011;7781;49.690;6.472;2022-12-10T04:57:19;17.10;;;10.77;;
15363;SDS011;7781;49.690;6.472;2022-12-10T04:59:48;15.10;;;8.97;;
15363;SDS011;7781;49.690;6.472;2022-12-10T05:02:17;17.23;;;9.50;;
15363;SDS011;7781;49.690;6.472;2022-12-10T05:04:48;19.13;;;10.10;;
15363;SDS011;7781;49.690;6.472;2022-12-10T05:07:16;16.27;;;8.90;;
15363;SDS011;7781;49.690;6.472;2022-12-10T05:09:45;17.67;;;10.20;;
15363;SDS011;7781;49.690;6.472;2022-12-10T05:12:16;24.70;;;11.57;;
15363;SDS011;7781;49.690;6.472;2022-12-10T05:14:45;18.93;;;11.40;;
15363;SDS011;7781;49.690;6.472;2022-12-10T05:17:14;20.30;;;10.60;;
15363;SDS011;7781;49.690;6.472;2022-12-10T05:19:44;18.13;;;10.90;;
15363;SDS011;7781;49.690;6.472;2022-12-10T05:22:14;22.03;;;10.90;;
15363;SDS011;7781;49.690;6.472;2022-12-10T05:25:00;17.17;;;10.37;;
15363;SDS011;7781;49.690;6.472;2022-12-10T05:27:32;22.33;;;11.60;;
15363;SDS011;7781;49.690;6.472;2022-12-10T05:30:01;18.97;;;10.70;;
15363;SDS011;7781;49.690;6.472;2022-12-10T05:32:32;23.33;;;10.67;;
15363;SDS011;7781;49.690;6.472;2022-12-10T05:35:01;14.40;;;9.57;;
15363;SDS011;7781;49.690;6.472;2022-12-10T05:37:32;14.37;;;9.60;;
15363;SDS011;7781;49.690;6.472;2022-12-10T05:40:01;19.23;;;10.23;;
15363;SDS011;7781;49.690;6.472;2022-12-10T05:42:31;20.43;;;10.97;;
15363;SDS011;7781;49.690;6.472;2022-12-10T05:45:01;20.20;;;10.53;;
15363;SDS011;7781;49.690;6.472;2022-12-10T05:47:29;20.63;;;9.70;;
15363;SDS011;7781;49.690;6.472;2022-12-10T05:49:59;18.80;;;9.77;;
15363;SDS011;7781;49.690;6.472;2022-12-10T05:52:28;20.23;;;9.37;;
15363;SDS011;7781;49.690;6.472;2022-12-10T05:54:59;17.50;;;10.37;;
15363;SDS011;7781;49.690;6.472;2022-12-10T05:57:32;15.20;;;10.10;;
15363;SDS011;7781;49.690;6.472;2022-12-10T06:00:02;18.37;;;10.10;;
15363;SDS011;7781;49.690;6.472;2022-12-10T06:02:37;15.37;;;9.80;;
15363;SDS011;7781;49.690;6.472;2022-12-10T06:05:06;19.17;;;9.83;;
15363;SDS011;7781;49.690;6.472;2022-12-10T06:07:37;19.53;;;11.17;;
15363;SDS011;7781;49.690;6.472;2022-12-10T06:10:06;24.67;;;11.50;;
15363;SDS011;7781;49.690;6.472;2022-12-10T06:12:38;17.30;;;10.03;;
15363;SDS011;7781;49.690;6.472;2022-12-10T06:15:09;17.93;;;10.00;;
15363;SDS011;7781;49.690;6.472;2022-12-10T06:17:38;20.67;;;11.27;;
15363;SDS011;7781;49.690;6.472;2022-12-10T06:20:07;19.90;;;11.40;;
15363;SDS011;7781;49.690;6.472;2022-12-10T06:22:37;22.17;;;10.30;;
15363;SDS011;7781;49.690;6.472;2022-12-10T06:25:06;19.63;;;11.70;;
15363;SDS011;7781;49.690;6.472;2022-12-10T06:27:35;21.93;;;11.83;;
15363;SDS011;7781;49.690;6.472;2022-12-10T06:30:07;18.60;;;11.53;;
15363;SDS011;7781;49.690;6.472;2022-12-10T06:32:38;22.50;;;11.17;;
15363;SDS011;7781;49.690;6.472;2022-12-10T06:35:09;18.60;;;10.57;;
15363;SDS011;7781;49.690;6.472;2022-12-10T06:37:39;18.83;;;10.57;;
15363;SDS011;7781;49.690;6.472;2022-12-10T06:40:09;16.93;;;10.03;;
15363;SDS011;7781;49.690;6.472;2022-12-10T06:42:40;17.90;;;9.80;;
15363;SDS011;7781;49.690;6.472;2022-12-10T06:45:09;19.83;;;10.77;;
15363;SDS011;7781;49.690;6.472;2022-12-10T06:47:43;18.50;;;11.17;;
15363;SDS011;7781;49.690;6.472;2022-12-10T06:50:15;19.40;;;9.20;;
15363;SDS011;7781;49.690;6.472;2022-12-10T06:52:44;23.90;;;10.20;;
15363;SDS011;7781;49.690;6.472;2022-12-10T06:55:20;21.10;;;11.43;;
15363;SDS011;7781;49.690;6.472;2022-12-10T06:57:52;19.23;;;10.27;;
15363;SDS011;7781;49.690;6.472;2022-12-10T07:00:21;20.33;;;8.80;;
15363;SDS011;7781;49.690;6.472;2022-12-10T07:02:51;17.53;;;9.33;;
15363;SDS011;7781;49.690;6.472;2022-12-10T07:05:21;17.40;;;9.80;;
15363;SDS011;7781;49.690;6.472;2022-12-10T07:07:50;15.43;;;8.73;;
15363;SDS011;7781;49.690;6.472;2022-12-10T07:10:18;18.43;;;10.17;;
15363;SDS011;7781;49.690;6.472;2022-12-10T07:12:49;20.07;;;10.60;;
15363;SDS011;7781;49.690;6.472;2022-12-10T07:15:19;17.57;;;9.90;;
15363;SDS011;7781;49.690;6.472;2022-12-10T07:17:50;17.73;;;8.40;;
15363;SDS011;7781;49.690;6.472;2022-12-10T07:20:19;17.53;;;10.47;;
15363;SDS011;7781;49.690;6.472;2022-12-10T07:22:52;17.90;;;8.90;;
15363;SDS011;7781;49.690;6.472;2022-12-10T07:25:21;16.23;;;9.67;;
15363;SDS011;7781;49.690;6.472;2022-12-10T07:27:53;16.73;;;9.30;;
15363;SDS011;7781;49.690;6.472;2022-12-10T07:30:25;20.83;;;9.60;;
15363;SDS011;7781;49.690;6.472;2022-12-10T07:32:53;22.20;;;10.07;;
15363;SDS011;7781;49.690;6.472;2022-12-10T07:35:23;19.03;;;10.17;;
15363;SDS011;7781;49.690;6.472;2022-12-10T07:37:53;26.13;;;9.77;;
15363;SDS011;7781;49.690;6.472;2022-12-10T07:40:23;19.93;;;10.30;;
15363;SDS011;7781;49.690;6.472;2022-12-10T07:42:52;19.87;;;9.90;;
15363;SDS011;7781;49.690;6.472;2022-12-10T07:45:31;16.27;;;9.20;;
15363;SDS011;7781;49.690;6.472;2022-12-10T07:48:00;13.70;;;8.80;;
15363;SDS011;7781;49.690;6.472;2022-12-10T07:50:32;18.17;;;9.93;;
15363;SDS011;7781;49.690;6.472;2022-12-10T07:53:03;17.30;;;9.40;;
15363;SDS011;7781;49.690;6.472;2022-12-10T07:55:34;18.43;;;9.77;;
15363;SDS011;7781;49.690;6.472;2022-12-10T07:58:03;20.60;;;9.20;;
15363;SDS011;7781;49.690;6.472;2022-12-10T08:00:36;24.33;;;11.23;;
15363;SDS011;7781;49.690;6.472;2022-12-10T08:03:06;22.20;;;10.03;;
15363;SDS011;7781;49.690;6.472;2022-12-10T08:05:36;16.43;;;9.30;;
15363;SDS011;7781;49.690;6.472;2022-12-10T08:08:09;15.20;;;9.00;;
15363;SDS011;7781;49.690;6.472;2022-12-10T08:10:39;17.40;;;8.93;;
15363;SDS011;7781;49.690;6.472;2022-12-10T08:13:08;21.60;;;9.37;;
15363;SDS011;7781;49.690;6.472;2022-12-10T08:15:38;20.67;;;10.17;;
15363;SDS011;7781;49.690;6.472;2022-12-10T08:18:07;16.93;;;9.47;;
15363;SDS011;7781;49.690;6.472;2022-12-10T08:20:37;22.40;;;8.80;;
15363;SDS011;7781;49.690;6.472;2022-12-10T08:23:07;18.97;;;9.83;;
15363;SDS011;7781;49.690;6.472;2022-12-10T08:25:37;14.60;;;8.87;;
15363;SDS011;7781;49.690;6.472;2022-12-10T08:28:08;15.93;;;8.90;;
15363;SDS011;7781;49.690;6.472;2022-12-10T08:30:39;14.80;;;9.10;;
15363;SDS011;7781;49.690;6.472;2022-12-10T08:33:08;17.50;;;8.97;;
15363;SDS011;7781;49.690;6.472;2022-12-10T08:35:37;17.03;;;9.30;;
15363;SDS011;7781;49.690;6.472;2022-12-10T08:38:06;18.20;;;8.70;;
15363;SDS011;7781;49.690;6.472;2022-12-10T08:40:38;19.40;;;10.30;;
15363;SDS011;7781;49.690;6.472;2022-12-10T08:43:08;17.20;;;9.43;;
15363;SDS011;7781;49.690;6.472;2022-12-10T08:45:39;25.20;;;13.10;;
15363;SDS011;7781;49.690;6.472;2022-12-10T08:48:08;17.10;;;10.07;;
15363;SDS011;7781;49.690;6.472;2022-12-10T08:50:38;15.50;;;8.83;;
15363;SDS011;7781;49.690;6.472;2022-12-10T08:53:08;17.63;;;9.63;;
15363;SDS011;7781;49.690;6.472;2022-12-10T08:55:38;18.03;;;9.77;;
15363;SDS011;7781;49.690;6.472;2022-12-10T08:58:14;24.20;;;12.70;;
15363;SDS011;7781;49.690;6.472;2022-12-10T09:00:45;26.03;;;13.00;;
15363;SDS011;7781;49.690;6.472;2022-12-10T09:03:17;31.37;;;13.60;;
15363;SDS011;7781;49.690;6.472;2022-12-10T09:05:47;20.63;;;11.50;;
15363;SDS011;7781;49.690;6.472;2022-12-10T09:08:16;27.07;;;13.27;;
15363;SDS011;7781;49.690;6.472;2022-12-10T09:10:45;29.63;;;12.93;;
15363;SDS011;7781;49.690;6.472;2022-12-10T09:13:14;19.43;;;9.70;;
15363;SDS011;7781;49.690;6.472;2022-12-10T09:15:51;18.67;;;9.47;;
15363;SDS011;7781;49.690;6.472;2022-12-10T09:18:20;14.17;;;8.60;;
15363;SDS011;7781;49.690;6.472;2022-12-10T09:20:49;16.47;;;9.37;;
15363;SDS011;7781;49.690;6.472;2022-12-10T09:23:20;16.43;;;8.97;;
15363;SDS011;7781;49.690;6.472;2022-12-10T09:25:52;17.67;;;9.10;;
15363;SDS011;7781;49.690;6.472;2022-12-10T09:28:21;17.27;;;8.90;;
15363;SDS011;7781;49.690;6.472;2022-12-10T09:30:56;13.93;;;7.83;;
15363;SDS011;7781;49.690;6.472;2022-12-10T09:33:25;14.80;;;8.20;;
15363;SDS011;7781;49.690;6.472;2022-12-10T09:35:56;12.70;;;7.23;;
15363;SDS011;7781;49.690;6.472;2022-12-10T09:38:26;11.57;;;6.30;;
15363;SDS011;7781;49.690;6.472;2022-12-10T09:40:58;12.47;;;6.70;;
15363;SDS011;7781;49.690;6.472;2022-12-10T09:43:34;10.90;;;6.53;;
15363;SDS011;7781;49.690;6.472;2022-12-10T09:46:18;12.03;;;6.43;;
15363;SDS011;7781;49.690;6.472;2022-12-10T09:48:57;13.43;;;6.40;;
15363;SDS011;7781;49.690;6.472;2022-12-10T09:51:35;10.43;;;5.13;;
15363;SDS011;7781;49.690;6.472;2022-12-10T09:54:11;13.00;;;6.67;;
15363;SDS011;7781;49.690;6.472;2022-12-10T09:56:51;15.10;;;5.77;;
15363;SDS011;7781;49.690;6.472;2022-12-10T09:59:23;13.07;;;6.50;;
15363;SDS011;7781;49.690;6.472;2022-12-10T10:02:03;11.93;;;5.80;;
15363;SDS011;7781;49.690;6.472;2022-12-10T10:04:47;10.23;;;5.40;;
15363;SDS011;7781;49.690;6.472;2022-12-10T10:07:19;10.37;;;6.23;;
15363;SDS011;7781;49.690;6.472;2022-12-10T10:09:50;11.07;;;6.10;;
15363;SDS011;7781;49.690;6.472;2022-12-10T10:12:26;11.87;;;6.63;;
15363;SDS011;7781;49.690;6.472;2022-12-10T10:14:56;13.17;;;6.10;;
15363;SDS011;7781;49.690;6.472;2022-12-10T10:17:35;9.37;;;5.80;;
15363;SDS011;7781;49.690;6.472;2022-12-10T10:20:06;9.37;;;5.43;;
15363;SDS011;7781;49.690;6.472;2022-12-10T10:22:37;11.00;;;6.03;;
15363;SDS011;7781;49.690;6.472;2022-12-10T10:25:07;13.60;;;6.93;;
15363;SDS011;7781;49.690;6.472;2022-12-10T10:27:41;9.77;;;6.33;;
15363;SDS011;7781;49.690;6.472;2022-12-10T10:30:13;14.20;;;7.30;;
15363;SDS011;7781;49.690;6.472;2022-12-10T10:32:49;9.47;;;6.60;;
15363;SDS011;7781;49.690;6.472;2022-12-10T10:35:20;14.60;;;6.30;;
15363;SDS011;7781;49.690;6.472;2022-12-10T10:37:56;12.03;;;6.50;;
15363;SDS011;7781;49.690;6.472;2022-12-10T10:40:28;14.43;;;7.03;;
15363;SDS011;7781;49.690;6.472;2022-12-10T10:43:00;11.17;;;6.70;;
15363;SDS011;7781;49.690;6.472;2022-12-10T10:45:31;14.17;;;7.00;;
15363;SDS011;7781;49.690;6.472;2022-12-10T10:48:08;13.63;;;6.80;;
15363;SDS011;7781;49.690;6.472;2022-12-10T10:50:41;12.80;;;6.67;;
15363;SDS011;7781;49.690;6.472;2022-12-10T10:53:27;13.80;;;6.57;;
15363;SDS011;7781;49.690;6.472;2022-12-10T10:56:12;9.73;;;6.57;;
15363;SDS011;7781;49.690;6.472;2022-12-10T10:58:50;11.90;;;6.07;;
15363;SDS011;7781;49.690;6.472;2022-12-10T11:01:24;9.50;;;5.80;;
15363;SDS011;7781;49.690;6.472;2022-12-10T11:03:57;13.13;;;7.00;;
15363;SDS011;7781;49.690;6.472;2022-12-10T11:06:28;12.00;;;7.00;;
15363;SDS011;7781;49.690;6.472;2022-12-10T11:08:57;11.23;;;6.83;;
15363;SDS011;7781;49.690;6.472;2022-12-10T11:11:31;12.60;;;7.20;;
15363;SDS011;7781;49.690;6.472;2022-12-10T11:14:14;10.67;;;7.20;;
15363;SDS011;7781;49.690;6.472;2022-12-10T11:16:54;10.30;;;6.43;;
15363;SDS011;7781;49.690;6.472;2022-12-10T11:19:43;9.60;;;6.30;;
15363;SDS011;7781;49.690;6.472;2022-12-10T11:22:17;10.30;;;6.87;;
15363;SDS011;7781;49.690;6.472;2022-12-10T11:24:50;13.13;;;6.67;;
15363;SDS011;7781;49.690;6.472;2022-12-10T11:27:24;14.97;;;6.90;;
15363;SDS011;7781;49.690;6.472;2022-12-10T11:30:04;12.67;;;6.70;;
15363;SDS011;7781;49.690;6.472;2022-12-10T11:32:40;16.00;;;7.60;;
15363;SDS011;7781;49.690;6.472;2022-12-10T11:35:21;10.93;;;6.50;;
15363;SDS011;7781;49.690;6.472;2022-12-10T11:38:09;16.57;;;7.57;;
15363;SDS011;7781;49.690;6.472;2022-12-10T11:40:49;12.90;;;7.20;;
15363;SDS011;7781;49.690;6.472;2022-12-10T11:43:32;12.87;;;7.10;;
15363;SDS011;7781;49.690;6.472;2022-12-10T11:46:16;11.17;;;6.90;;
15363;SDS011;7781;49.690;6.472;2022-12-10T11:49:00;15.50;;;7.70;;
15363;SDS011;7781;49.690;6.472;2022-12-10T11:51:40;14.53;;;7.60;;
15363;SDS011;7781;49.690;6.472;2022-12-10T11:54:17;12.80;;;7.30;;
15363;SDS011;7781;49.690;6.472;2022-12-10T11:56:59;11.40;;;7.70;;
15363;SDS011;7781;49.690;6.472;2022-12-10T11:59:36;12.60;;;7.83;;
15363;SDS011;7781;49.690;6.472;2022-12-10T12:02:35;13.43;;;7.93;;
15363;SDS011;7781;49.690;6.472;2022-12-10T12:05:36;10.77;;;7.23;;
15363;SDS011;7781;49.690;6.472;2022-12-10T12:08:36;12.77;;;8.13;;
15363;SDS011;7781;49.690;6.472;2022-12-10T12:11:18;13.67;;;7.80;;
15363;SDS011;7781;49.690;6.472;2022-12-10T12:13:59;16.00;;;8.40;;
15363;SDS011;7781;49.690;6.472;2022-12-10T12:16:34;20.63;;;7.80;;
15363;SDS011;7781;49.690;6.472;2022-12-10T12:19:09;15.90;;;8.27;;
15363;SDS011;7781;49.690;6.472;2022-12-10T12:21:41;11.67;;;8.10;;
15363;SDS011;7781;49.690;6.472;2022-12-10T12:24:14;12.33;;;7.43;;
15363;SDS011;7781;49.690;6.472;2022-12-10T12:26:49;14.33;;;7.53;;
15363;SDS011;7781;49.690;6.472;2022-12-10T12:29:23;13.57;;;8.53;;
15363;SDS011;7781;49.690;6.472;2022-12-10T12:32:03;14.20;;;9.10;;
15363;SDS011;7781;49.690;6.472;2022-12-10T12:34:43;15.10;;;7.97;;
15363;SDS011;7781;49.690;6.472;2022-12-10T12:37:17;16.27;;;8.40;;
15363;SDS011;7781;49.690;6.472;2022-12-10T12:39:54;14.60;;;8.87;;
15363;SDS011;7781;49.690;6.472;2022-12-10T12:42:30;15.03;;;8.50;;
15363;SDS011;7781;49.690;6.472;2022-12-10T12:45:08;14.27;;;7.93;;
15363;SDS011;7781;49.690;6.472;2022-12-10T12:47:46;12.83;;;7.80;;
15363;SDS011;7781;49.690;6.472;2022-12-10T12:50:27;14.90;;;8.17;;
15363;SDS011;7781;49.690;6.472;2022-12-10T12:53:01;14.53;;;7.93;;
15363;SDS011;7781;49.690;6.472;2022-12-10T12:55:43;12.90;;;7.83;;
15363;SDS011;7781;49.690;6.472;2022-12-10T12:58:20;13.00;;;7.80;;
15363;SDS011;7781;49.690;6.472;2022-12-10T13:00:57;22.63;;;9.10;;
15363;SDS011;7781;49.690;6.472;2022-12-10T13:03:34;13.20;;;8.00;;
15363;SDS011;7781;49.690;6.472;2022-12-10T13:06:11;17.80;;;9.10;;
15363;SDS011;7781;49.690;6.472;2022-12-10T13:08:46;14.43;;;8.20;;
15363;SDS011;7781;49.690;6.472;2022-12-10T13:11:18;19.00;;;9.30;;
15363;SDS011;7781;49.690;6.472;2022-12-10T13:14:09;12.57;;;8.23;;
15363;SDS011;7781;49.690;6.472;2022-12-10T13:16:59;11.10;;;7.73;;
15363;SDS011;7781;49.690;6.472;2022-12-10T13:19:35;11.93;;;7.30;;
15363;SDS011;7781;49.690;6.472;2022-12-10T13:22:05;14.60;;;8.40;;
15363;SDS011;7781;49.690;6.472;2022-12-10T13:24:45;15.10;;;8.80;;
15363;SDS011;7781;49.690;6.472;2022-12-10T13:27:39;15.37;;;8.33;;
15363;SDS011;7781;49.690;6.472;2022-12-10T13:30:32;16.20;;;8.70;;
15363;SDS011;7781;49.690;6.472;2022-12-10T13:33:09;14.63;;;8.27;;
15363;SDS011;7781;49.690;6.472;2022-12-10T13:35:51;13.37;;;9.20;;
15363;SDS011;7781;49.690;6.472;2022-12-10T13:38:38;15.40;;;8.40;;
15363;SDS011;7781;49.690;6.472;2022-12-10T13:41:10;17.10;;;8.83;;
15363;SDS011;7781;49.690;6.472;2022-12-10T13:44:01;16.27;;;10.23;;
15363;SDS011;7781;49.690;6.472;2022-12-10T13:46:54;14.67;;;8.40;;
15363;SDS011;7781;49.690;6.472;2022-12-10T13:49:25;12.23;;;8.00;;
15363;SDS011;7781;49.690;6.472;2022-12-10T13:51:59;11.33;;;8.23;;
15363;SDS011;7781;49.690;6.472;2022-12-10T13:54:55;15.97;;;7.87;;
15363;SDS011;7781;49.690;6.472;2022-12-10T13:57:53;21.23;;;8.17;;
15363;SDS011;7781;49.690;6.472;2022-12-10T14:00:33;14.73;;;8.30;;
15363;SDS011;7781;49.690;6.472;2022-12-10T14:03:09;15.10;;;8.43;;
15363;SDS011;7781;49.690;6.472;2022-12-10T14:06:08;18.23;;;8.80;;
15363;SDS011;7781;49.690;6.472;2022-12-10T14:08:49;13.53;;;8.27;;
15363;SDS011;7781;49.690;6.472;2022-12-10T14:11:27;14.50;;;7.73;;
15363;SDS011;7781;49.690;6.472;2022-12-10T14:14:04;14.00;;;8.00;;
15363;SDS011;7781;49.690;6.472;2022-12-10T14:16:41;12.50;;;7.77;;
15363;SDS011;7781;49.690;6.472;2022-12-10T14:19:13;11.93;;;8.30;;
15363;SDS011;7781;49.690;6.472;2022-12-10T14:21:46;13.60;;;8.73;;
15363;SDS011;7781;49.690;6.472;2022-12-10T14:24:26;16.33;;;8.83;;
15363;SDS011;7781;49.690;6.472;2022-12-10T14:26:58;16.60;;;9.10;;
15363;SDS011;7781;49.690;6.472;2022-12-10T14:29:28;14.80;;;9.17;;
15363;SDS011;7781;49.690;6.472;2022-12-10T14:32:00;14.60;;;8.10;;
15363;SDS011;7781;49.690;6.472;2022-12-10T14:34:30;15.10;;;8.50;;
15363;SDS011;7781;49.690;6.472;2022-12-10T14:37:00;16.77;;;10.50;;
15363;SDS011;7781;49.690;6.472;2022-12-10T14:39:32;21.73;;;10.10;;
15363;SDS011;7781;49.690;6.472;2022-12-10T14:42:05;123.20;;;43.00;;
15363;SDS011;7781;49.690;6.472;2022-12-10T14:44:35;155.73;;;56.33;;
15363;SDS011;7781;49.690;6.472;2022-12-10T14:47:12;54.67;;;23.63;;
15363;SDS011;7781;49.690;6.472;2022-12-10T14:49:44;15.77;;;8.80;;
15363;SDS011;7781;49.690;6.472;2022-12-10T14:52:15;14.97;;;9.30;;
15363;SDS011;7781;49.690;6.472;2022-12-10T14:54:46;13.43;;;8.27;;
15363;SDS011;7781;49.690;6.472;2022-12-10T14:57:17;12.23;;;8.13;;
15363;SDS011;7781;49.690;6.472;2022-12-10T14:59:50;12.37;;;7.83;;
15363;SDS011;7781;49.690;6.472;2022-12-10T15:02:27;19.50;;;9.00;;
15363;SDS011;7781;49.690;6.472;2022-12-10T15:04:58;16.53;;;10.00;;
15363;SDS011;7781;49.690;6.472;2022-12-10T15:07:30;19.70;;;9.97;;
15363;SDS011;7781;49.690;6.472;2022-12-10T15:10:04;37.57;;;17.03;;
15363;SDS011;7781;49.690;6.472;2022-12-10T15:12:42;20.73;;;10.73;;
15363;SDS011;7781;49.690;6.472;2022-12-10T15:15:14;18.23;;;9.90;;
15363;SDS011;7781;49.690;6.472;2022-12-10T15:17:54;16.73;;;9.87;;
15363;SDS011;7781;49.690;6.472;2022-12-10T15:20:26;17.63;;;10.03;;
15363;SDS011;7781;49.690;6.472;2022-12-10T15:23:08;22.93;;;10.77;;
15363;SDS011;7781;49.690;6.472;2022-12-10T15:25:45;19.37;;;10.00;;
15363;SDS011;7781;49.690;6.472;2022-12-10T15:28:22;18.10;;;10.03;;